createdAt,value
2022-11-22T00:02:23.008Z,98345.59
2022-11-22T00:04:49.547Z,98372.47
2022-11-22T00:07:16.072Z,98339.31
2022-11-22T00:09:42.582Z,98301.78
2022-11-22T00:12:09.096Z,98360.66
2022-11-22T00:14:35.695Z,98364.03
2022-11-22T00:17:02.185Z,98359.13
2022-11-22T00:19:28.862Z,98363.66
2022-11-22T00:21:55.526Z,98354.94
2022-11-22T00:24:22.141Z,98314.94
2022-11-22T00:26:48.642Z,98337.94
2022-11-22T00:29:16.080Z,98303.47
2022-11-22T00:31:42.585Z,98331.06
2022-11-22T00:34:09.103Z,98326.97
2022-11-22T00:36:35.688Z,98326.28
2022-11-22T00:39:02.196Z,98325.28
2022-11-22T00:41:28.756Z,98319.09
2022-11-22T00:43:55.314Z,98321.72
2022-11-22T00:46:21.815Z,98291.09
2022-11-22T00:48:48.352Z,98307.06
2022-11-22T00:51:14.857Z,98304.28
2022-11-22T00:53:41.754Z,98304.44
2022-11-22T00:56:08.390Z,98304.34
2022-11-22T00:58:34.940Z,98290.47
2022-11-22T01:01:01.639Z,98299.97
2022-11-22T01:03:28.288Z,98309.59
2022-11-22T01:05:54.832Z,98318.25
2022-11-22T01:08:21.349Z,98311.38
2022-11-22T01:10:47.865Z,98301.91
2022-11-22T01:13:14.440Z,98297.47
2022-11-22T01:15:41.026Z,98327.13
2022-11-22T01:18:07.563Z,98285.47
2022-11-22T01:20:34.203Z,98295.69
2022-11-22T01:23:00.704Z,98329.59
2022-11-22T01:25:27.246Z,98317.41
2022-11-22T01:27:53.756Z,98283.94
2022-11-22T01:30:20.461Z,98308.91
2022-11-22T01:32:46.957Z,98311.69
2022-11-22T01:35:13.788Z,98322.06
2022-11-22T01:37:40.339Z,98325.53
2022-11-22T01:40:07.796Z,98319.31
2022-11-22T01:42:51.954Z,98340.78
2022-11-22T01:45:30.580Z,98323.38
2022-11-22T01:48:07.747Z,98357.44
2022-11-22T01:50:37.557Z,98355.88
2022-11-22T01:53:10.885Z,98364.31
2022-11-22T01:55:37.498Z,98348.81
2022-11-22T01:58:04.645Z,98349.66
2022-11-22T02:00:31.140Z,98310.81
2022-11-22T02:03:01.746Z,98348.00
2022-11-22T02:05:32.678Z,98357.44
2022-11-22T02:08:10.504Z,98353.59
2022-11-22T02:10:43.498Z,98344.19
2022-11-22T02:13:10.966Z,98359.44
2022-11-22T02:15:37.613Z,98354.19
2022-11-22T02:18:04.247Z,98350.72
2022-11-22T02:20:31.458Z,98349.78
2022-11-22T02:23:16.773Z,98356.50
2022-11-22T02:26:02.883Z,98337.00
2022-11-22T02:28:32.222Z,98358.88
2022-11-22T02:30:58.808Z,98354.56
2022-11-22T02:33:25.379Z,98334.53
2022-11-22T02:35:52.104Z,98372.16
2022-11-22T02:38:24.896Z,98374.63
2022-11-22T02:41:02.113Z,98369.81
2022-11-22T02:43:34.937Z,98371.78
2022-11-22T02:46:06.659Z,98383.03
2022-11-22T02:48:33.217Z,98385.66
2022-11-22T02:50:59.914Z,98385.66
2022-11-22T02:53:26.464Z,98376.19
2022-11-22T02:55:53.037Z,98382.94
2022-11-22T02:58:19.541Z,98387.91
2022-11-22T03:00:46.214Z,98358.06
2022-11-22T03:03:12.814Z,98372.16
2022-11-22T03:05:39.350Z,98366.00
2022-11-22T03:08:05.890Z,98335.97
2022-11-22T03:10:32.446Z,98376.38
2022-11-22T03:12:59.668Z,98382.97
2022-11-22T03:15:26.494Z,98372.81
2022-11-22T03:18:00.934Z,98362.66
2022-11-22T03:20:28.099Z,98385.22
2022-11-22T03:22:54.730Z,98390.03
2022-11-22T03:25:21.297Z,98395.56
2022-11-22T03:27:47.896Z,98375.50
2022-11-22T03:30:14.947Z,98354.28
2022-11-22T03:32:41.603Z,98397.31
2022-11-22T03:35:08.644Z,98379.38
2022-11-22T03:37:35.170Z,98397.13
2022-11-22T03:40:02.011Z,98404.75
2022-11-22T03:42:28.536Z,98373.06
2022-11-22T03:44:55.072Z,98413.50
2022-11-22T03:47:21.599Z,98407.31
2022-11-22T03:49:48.168Z,98415.47
2022-11-22T03:52:15.014Z,98410.13
2022-11-22T03:54:41.634Z,98417.81
2022-11-22T03:57:08.160Z,98416.13
2022-11-22T03:59:34.769Z,98412.94
2022-11-22T04:02:01.390Z,98418.00
2022-11-22T04:04:28.168Z,98406.91
2022-11-22T04:06:54.654Z,98417.66
2022-11-22T04:09:21.375Z,98413.50
2022-11-22T04:11:48.032Z,98411.91
2022-11-22T04:14:33.347Z,98418.84
2022-11-22T04:16:59.898Z,98420.53
2022-11-22T04:19:26.485Z,98421.31
2022-11-22T04:21:53.041Z,98429.81
2022-11-22T04:24:38.199Z,98427.94
2022-11-22T04:27:04.799Z,98395.66
2022-11-22T04:29:31.621Z,98424.38
2022-11-22T04:32:17.018Z,98418.50
2022-11-22T04:34:43.607Z,98413.31
2022-11-22T04:37:10.150Z,98359.34
2022-11-22T04:39:36.847Z,98423.84
2022-11-22T04:42:21.950Z,98427.00
2022-11-22T04:44:48.582Z,98428.53
2022-11-22T04:47:36.865Z,98432.66
2022-11-22T04:50:26.034Z,98430.56
2022-11-22T04:52:55.162Z,98433.97
2022-11-22T04:55:22.418Z,98433.88
2022-11-22T04:57:50.427Z,98422.59
2022-11-22T05:00:18.811Z,98432.94
2022-11-22T05:02:45.477Z,98394.94
2022-11-22T05:05:12.141Z,98400.28
2022-11-22T05:07:38.793Z,98450.66
2022-11-22T05:10:05.572Z,98441.84
2022-11-22T05:12:32.230Z,98452.38
2022-11-22T05:14:58.764Z,98458.56
2022-11-22T05:17:25.296Z,98445.06
2022-11-22T05:19:51.944Z,98446.56
2022-11-22T05:22:38.412Z,98452.56
2022-11-22T05:25:05.499Z,98458.38
2022-11-22T05:27:32.052Z,98459.22
2022-11-22T05:29:58.696Z,98399.22
2022-11-22T05:32:25.225Z,98466.94
2022-11-22T05:34:52.029Z,98430.66
2022-11-22T05:37:18.598Z,98464.47
2022-11-22T05:39:45.092Z,98466.34
2022-11-22T05:42:11.677Z,98478.47
2022-11-22T05:44:38.295Z,98468.91
2022-11-22T05:47:04.900Z,98478.56
2022-11-22T05:49:32.144Z,98481.94
2022-11-22T05:51:59.134Z,98475.47
2022-11-22T05:54:25.746Z,98487.03
2022-11-22T05:56:52.282Z,98483.34
2022-11-22T05:59:18.847Z,98488.47
2022-11-22T06:01:45.385Z,98480.22
2022-11-22T06:04:12.202Z,98499.44
2022-11-22T06:06:38.721Z,98496.25
2022-11-22T06:09:05.318Z,98478.03
2022-11-22T06:11:32.024Z,98513.31
2022-11-22T06:14:04.868Z,98516.13
2022-11-22T06:16:31.491Z,98521.53
2022-11-22T06:18:58.032Z,98520.78
2022-11-22T06:21:26.333Z,98522.53
2022-11-22T06:23:56.405Z,98524.31
2022-11-22T06:26:24.175Z,98527.88
2022-11-22T06:28:50.872Z,98499.38
2022-11-22T06:31:23.227Z,98537.81
2022-11-22T06:33:49.825Z,98548.19
2022-11-22T06:36:19.043Z,98513.34
2022-11-22T06:38:46.245Z,98551.09
2022-11-22T06:41:18.186Z,98546.78
2022-11-22T06:43:48.998Z,98551.19
2022-11-22T06:46:18.331Z,98555.59
2022-11-22T06:48:45.347Z,98527.66
2022-11-22T06:51:15.028Z,98567.63
2022-11-22T06:53:49.785Z,98576.59
2022-11-22T06:56:30.792Z,98580.34
2022-11-22T06:58:57.834Z,98576.28
2022-11-22T07:01:26.888Z,98552.66
2022-11-22T07:03:58.441Z,98556.22
2022-11-22T07:06:30.994Z,98592.22
2022-11-22T07:08:58.694Z,98586.44
2022-11-22T07:11:28.081Z,98600.34
2022-11-22T07:13:59.036Z,98597.63
2022-11-22T07:16:28.536Z,98598.47
2022-11-22T07:18:55.110Z,98566.28
2022-11-22T07:21:24.307Z,98602.88
2022-11-22T07:23:52.923Z,98609.66
2022-11-22T07:26:21.283Z,98602.78
2022-11-22T07:28:48.465Z,98613.72
2022-11-22T07:31:17.222Z,98607.59
2022-11-22T07:33:44.248Z,98603.03
2022-11-22T07:36:21.875Z,98589.59
2022-11-22T07:38:49.187Z,98612.84
2022-11-22T07:41:17.163Z,98569.50
2022-11-22T07:43:44.357Z,98616.34
2022-11-22T07:46:26.386Z,98600.50
2022-11-22T07:48:53.178Z,98621.34
2022-11-22T07:51:19.757Z,98616.00
2022-11-22T07:53:46.438Z,98629.47
2022-11-22T07:56:13.124Z,98625.78
2022-11-22T07:58:40.175Z,98627.31
2022-11-22T08:01:12.399Z,98631.53
2022-11-22T08:03:39.821Z,98634.16
2022-11-22T08:06:08.468Z,98650.66
2022-11-22T08:08:36.296Z,98662.03
2022-11-22T08:11:03.877Z,98661.94
2022-11-22T08:13:31.414Z,98671.19
2022-11-22T08:16:05.602Z,98657.13
2022-11-22T08:18:33.193Z,98653.03
2022-11-22T08:21:04.608Z,98650.81
2022-11-22T08:23:31.215Z,98643.69
2022-11-22T08:25:59.094Z,98664.34
2022-11-22T08:28:26.107Z,98671.31
2022-11-22T08:30:58.461Z,98648.53
2022-11-22T08:33:25.025Z,98663.84
2022-11-22T08:35:51.692Z,98674.16
2022-11-22T08:38:18.300Z,98687.50
2022-11-22T08:40:45.060Z,98683.34
2022-11-22T08:43:11.683Z,98688.06
2022-11-22T08:45:39.140Z,98677.13
2022-11-22T08:48:05.858Z,98667.09
2022-11-22T08:50:32.455Z,98685.16
2022-11-22T08:53:01.432Z,98676.41
2022-11-22T08:55:27.965Z,98678.47
2022-11-22T08:57:59.078Z,98676.69
2022-11-22T09:00:31.704Z,98687.13
2022-11-22T09:02:59.799Z,98648.75
2022-11-22T09:05:26.612Z,98672.69
2022-11-22T09:10:39.949Z,98671.88
2022-11-22T09:13:06.500Z,98681.28
2022-11-22T09:15:33.309Z,98681.13
2022-11-22T09:18:02.077Z,98674.16
2022-11-22T09:20:28.784Z,98670.28
2022-11-22T09:22:55.381Z,98646.66
2022-11-22T09:25:22.394Z,98643.09
2022-11-22T09:27:49.045Z,98679.03
2022-11-22T09:30:15.900Z,98661.63
2022-11-22T09:32:44.641Z,98697.53
2022-11-22T09:35:11.249Z,98701.03
2022-11-22T09:37:37.836Z,98692.09
2022-11-22T09:40:04.808Z,98691.16
2022-11-22T09:42:51.664Z,98687.97
2022-11-22T09:45:53.753Z,98699.34
2022-11-22T09:48:40.070Z,98686.00
2022-11-22T09:51:17.304Z,98678.84
2022-11-22T09:53:59.792Z,98696.06
2022-11-22T09:56:28.387Z,98663.06
2022-11-22T09:59:05.993Z,98684.13
2022-11-22T10:01:51.170Z,98692.22
2022-11-22T10:04:24.219Z,98705.75
2022-11-22T10:06:58.790Z,98694.00
2022-11-22T10:09:39.413Z,98689.56
2022-11-22T10:12:17.528Z,98682.25
2022-11-22T10:15:12.385Z,98668.22
2022-11-22T10:17:51.871Z,98667.75
2022-11-22T10:20:29.806Z,98668.06
2022-11-22T10:22:58.641Z,98682.06
2022-11-22T10:25:44.647Z,98650.91
2022-11-22T10:28:15.124Z,98664.38
2022-11-22T10:30:53.788Z,98659.56
2022-11-22T10:33:29.648Z,98674.00
2022-11-22T10:36:17.117Z,98672.66
2022-11-22T10:39:02.164Z,98662.31
2022-11-22T10:41:42.964Z,98678.59
2022-11-22T10:45:00.930Z,98675.09
2022-11-22T10:47:34.515Z,98674.84
2022-11-22T10:50:11.433Z,98686.47
2022-11-22T10:53:03.431Z,98684.50
2022-11-22T10:56:11.134Z,98692.31
2022-11-22T10:59:15.372Z,98693.25
2022-11-22T11:02:00.236Z,98687.50
2022-11-22T11:04:34.547Z,98657.31
2022-11-22T11:07:12.069Z,98680.63
2022-11-22T11:12:47.438Z,98676.94
2022-11-22T11:15:23.407Z,98674.38
2022-11-22T11:17:55.923Z,98655.50
2022-11-22T11:20:35.420Z,98668.66
2022-11-22T11:23:17.178Z,98604.63
2022-11-22T11:25:46.146Z,98668.56
2022-11-22T11:28:27.271Z,98665.91
2022-11-22T11:31:02.475Z,98646.38
2022-11-22T11:33:31.675Z,98670.16
2022-11-22T11:36:23.613Z,98668.75
2022-11-22T11:38:57.704Z,98670.06
2022-11-22T11:41:35.314Z,98670.66
2022-11-22T11:44:05.863Z,98676.63
2022-11-22T11:46:41.515Z,98669.69
2022-11-22T11:49:15.345Z,98678.53
2022-11-22T11:51:54.170Z,98671.47
2022-11-22T11:54:23.929Z,98647.03
2022-11-22T11:56:58.939Z,98664.03
2022-11-22T11:59:45.644Z,98671.81
2022-11-22T12:02:15.287Z,98642.66
2022-11-22T12:04:55.222Z,98642.28
2022-11-22T12:07:27.558Z,98662.94
2022-11-22T12:09:55.931Z,98662.16
2022-11-22T12:12:43.966Z,98664.84
2022-11-22T12:15:19.694Z,98630.00
2022-11-22T12:17:57.706Z,98653.16
2022-11-22T12:20:41.900Z,98645.34
2022-11-22T12:23:17.376Z,98649.25
2022-11-22T12:25:45.536Z,98641.34
2022-11-22T12:28:19.293Z,98648.53
2022-11-22T12:30:56.834Z,98635.13
2022-11-22T12:33:34.213Z,98641.50
2022-11-22T12:36:04.204Z,98637.81
2022-11-22T12:38:40.321Z,98603.28
2022-11-22T12:41:12.388Z,98645.81
2022-11-22T12:43:48.679Z,98646.97
2022-11-22T12:46:26.467Z,98649.41
2022-11-22T12:49:02.789Z,98638.97
2022-11-22T12:52:04.550Z,98644.22
2022-11-22T12:54:42.666Z,98636.88
2022-11-22T12:57:26.248Z,98632.63
2022-11-22T13:00:14.538Z,98639.81
2022-11-22T13:02:47.094Z,98632.75
2022-11-22T13:05:15.160Z,98636.25
2022-11-22T13:07:59.779Z,98634.03
2022-11-22T13:10:29.272Z,98639.00
2022-11-22T13:12:58.955Z,98640.38
2022-11-22T13:15:31.715Z,98634.13
2022-11-22T13:17:58.683Z,98632.44
2022-11-22T13:20:42.949Z,98631.16
2022-11-22T13:23:50.054Z,98630.97
2022-11-22T13:26:27.649Z,98628.66
2022-11-22T13:28:55.679Z,98593.28
2022-11-22T13:31:22.281Z,98616.19
2022-11-22T13:34:02.295Z,98596.94
2022-11-22T13:36:31.794Z,98607.94
2022-11-22T13:39:01.120Z,98614.56
2022-11-22T13:41:36.683Z,98618.25
2022-11-22T13:44:21.762Z,98609.28
2022-11-22T13:47:13.199Z,98615.63
2022-11-22T13:49:49.404Z,98595.06
2022-11-22T13:52:16.054Z,98601.81
2022-11-22T13:54:48.375Z,98622.75
2022-11-22T13:57:34.782Z,98621.03
2022-11-22T14:00:16.688Z,98615.97
2022-11-22T14:03:08.602Z,98617.31
2022-11-22T14:05:41.669Z,98611.31
2022-11-22T14:08:44.051Z,98600.13
2022-11-22T14:11:30.215Z,98620.59
2022-11-22T14:14:35.505Z,98606.44
2022-11-22T14:17:26.384Z,98574.78
2022-11-22T14:20:28.611Z,98605.72
2022-11-22T14:23:04.346Z,98616.25
2022-11-22T14:25:49.109Z,98604.75
2022-11-22T14:28:38.773Z,98603.81
2022-11-22T14:31:23.237Z,98615.72
2022-11-22T14:34:23.706Z,98612.03
2022-11-22T14:37:15.440Z,98614.47
2022-11-22T14:39:44.683Z,98608.13
2022-11-22T14:42:36.654Z,98619.34
2022-11-22T14:45:42.448Z,98618.69
2022-11-22T14:48:15.518Z,98620.28
2022-11-22T14:50:48.322Z,98627.69
2022-11-22T14:53:33.220Z,98625.47
2022-11-22T14:56:07.999Z,98610.44
2022-11-22T14:58:41.025Z,98624.56
2022-11-22T15:01:35.755Z,98634.69
2022-11-22T15:09:20.357Z,98621.81
2022-11-22T15:09:29.397Z,98639.41
2022-11-22T15:11:07.983Z,98637.31
2022-11-22T15:13:49.452Z,98642.38
2022-11-22T15:57:24.381Z,98697.34
2022-11-22T15:59:54.337Z,98700.00
2022-11-22T16:02:25.956Z,98696.31
2022-11-22T16:06:05.372Z,98703.16
2022-11-22T16:07:52.575Z,98704.50
2022-11-22T16:10:24.190Z,98712.31
2022-11-22T16:12:52.536Z,98703.66
2022-11-22T16:15:22.597Z,98707.81
2022-11-22T16:17:56.429Z,98697.53
2022-11-22T16:20:28.968Z,98706.19
2022-11-22T16:23:11.835Z,98710.63
2022-11-22T16:25:43.942Z,98708.28
2022-11-22T16:28:32.104Z,98711.75
2022-11-22T16:31:02.115Z,98713.72
2022-11-22T16:33:29.348Z,98713.91
2022-11-22T16:35:58.504Z,98716.56
2022-11-22T16:38:26.164Z,98718.47
2022-11-22T16:40:54.665Z,98726.16
2022-11-22T16:43:23.340Z,98718.63
2022-11-22T16:45:50.787Z,98727.28
2022-11-22T16:48:31.764Z,98725.19
2022-11-22T16:51:05.043Z,98723.81
2022-11-22T16:53:41.475Z,98722.03
2022-11-22T16:56:09.342Z,98729.06
2022-11-22T16:58:35.903Z,98731.25
2022-11-22T17:01:02.703Z,98733.59
2022-11-22T17:03:31.841Z,98726.16
2022-11-22T17:05:58.495Z,98737.25
2022-11-22T17:08:26.019Z,98743.56
2022-11-22T17:10:52.992Z,98743.56
2022-11-22T17:13:28.044Z,98745.06
2022-11-22T17:15:56.067Z,98728.25
2022-11-22T17:18:23.087Z,98743.47
2022-11-22T17:20:49.930Z,98748.66
2022-11-22T17:23:21.089Z,98737.75
2022-11-22T17:25:47.712Z,98747.06
2022-11-22T17:28:14.488Z,98744.31
2022-11-22T17:30:41.071Z,98725.91
2022-11-22T17:33:08.614Z,98744.91
2022-11-22T17:35:37.234Z,98756.94
2022-11-22T17:38:04.891Z,98751.47
2022-11-22T17:40:31.728Z,98760.41
2022-11-22T17:42:58.764Z,98759.38
2022-11-22T17:45:25.269Z,98743.22
2022-11-22T17:47:51.995Z,98757.88
2022-11-22T17:50:18.689Z,98758.09
2022-11-22T17:52:45.311Z,98765.31
2022-11-22T17:55:14.353Z,98768.22
2022-11-22T17:57:41.265Z,98763.81
2022-11-22T18:00:08.449Z,98771.81
2022-11-22T18:02:35.279Z,98749.25
2022-11-22T18:05:05.746Z,98769.38
2022-11-22T18:07:32.457Z,98771.25
2022-11-22T18:09:59.074Z,98782.16
2022-11-22T18:12:25.700Z,98770.69
2022-11-22T18:14:52.322Z,98770.50
2022-11-22T18:17:18.900Z,98771.44
2022-11-22T18:19:45.418Z,98783.88
2022-11-22T18:22:12.007Z,98782.84
2022-11-22T18:24:38.692Z,98775.03
2022-11-22T18:27:05.240Z,98783.50
2022-11-22T18:29:53.517Z,98778.31
2022-11-22T18:32:18.474Z,98783.38
2022-11-22T18:34:45.206Z,98785.16
2022-11-22T18:37:11.845Z,98785.06
2022-11-22T18:39:40.002Z,98786.13
2022-11-22T18:42:10.443Z,98793.72
2022-11-22T18:44:36.917Z,98791.28
2022-11-22T18:47:03.818Z,98795.69
2022-11-22T18:49:31.174Z,98794.22
2022-11-22T18:51:58.070Z,98796.28
2022-11-22T18:54:24.730Z,98801.72
2022-11-22T18:56:51.811Z,98794.75
2022-11-22T18:59:18.805Z,98791.41
2022-11-22T19:01:45.644Z,98800.25
2022-11-22T19:04:14.987Z,98796.38
2022-11-22T19:06:45.602Z,98797.41
2022-11-22T19:09:12.491Z,98770.09
2022-11-22T19:11:40.248Z,98795.81
2022-11-22T19:14:07.693Z,98794.97
2022-11-22T19:16:35.559Z,98776.97
2022-11-22T19:19:02.240Z,98795.53
2022-11-22T19:21:29.961Z,98793.06
2022-11-22T19:23:57.020Z,98771.34
2022-11-22T19:26:25.708Z,98781.13
2022-11-22T19:28:57.730Z,98795.53
2022-11-22T19:31:28.050Z,98793.81
2022-11-22T19:33:55.453Z,98801.94
2022-11-22T19:36:30.498Z,98805.31
2022-11-22T19:38:58.750Z,98808.03
2022-11-22T19:41:25.485Z,98779.97
2022-11-22T19:43:52.572Z,98810.13
2022-11-22T19:46:22.308Z,98804.34
2022-11-22T19:48:57.417Z,98812.34
2022-11-22T19:51:26.425Z,98806.22
2022-11-22T19:54:03.742Z,98813.19
2022-11-22T19:56:36.300Z,98824.75
2022-11-22T19:59:09.293Z,98812.63
2022-11-22T20:01:38.534Z,98814.88
2022-11-22T20:04:15.322Z,98819.75
2022-11-22T20:06:44.854Z,98813.31
2022-11-22T20:09:13.839Z,98818.66
2022-11-22T20:11:41.426Z,98826.09
2022-11-22T20:14:09.453Z,98822.94
2022-11-22T20:16:37.292Z,98836.56
2022-11-22T20:19:06.941Z,98834.44
2022-11-22T20:21:34.992Z,98838.00
2022-11-22T20:24:02.546Z,98838.78
2022-11-22T20:26:30.602Z,98839.78
2022-11-22T20:29:05.840Z,98841.78
2022-11-22T20:31:34.497Z,98844.41
2022-11-22T20:34:02.003Z,98846.19
2022-11-22T20:36:31.695Z,98842.63
2022-11-22T20:38:58.845Z,98848.53
2022-11-22T20:41:27.897Z,98853.72
2022-11-22T20:43:55.915Z,98855.41
2022-11-22T20:46:25.482Z,98857.88
2022-11-22T20:48:55.530Z,98862.28
2022-11-22T20:51:27.829Z,98869.94
2022-11-22T20:53:57.435Z,98848.91
2022-11-22T20:56:24.527Z,98869.34
2022-11-22T20:58:52.365Z,98872.13
2022-11-22T21:01:21.553Z,98878.41
2022-11-22T21:03:49.042Z,98881.81
2022-11-22T21:06:17.182Z,98881.06
2022-11-22T21:08:45.787Z,98877.47
2022-11-22T21:11:20.863Z,98869.78
2022-11-22T21:13:48.136Z,98888.94
2022-11-22T21:16:23.738Z,98889.31
2022-11-22T21:19:07.004Z,98891.16
2022-11-22T21:21:35.782Z,98892.94
2022-11-22T21:24:04.465Z,98893.13
2022-11-22T21:26:31.710Z,98895.66
2022-11-22T21:28:59.658Z,98904.25
2022-11-22T21:31:27.354Z,98898.72
2022-11-22T21:33:54.339Z,98897.88
2022-11-22T21:36:21.334Z,98901.38
2022-11-22T21:38:48.356Z,98888.47
2022-11-22T21:44:05.890Z,98887.44
2022-11-22T21:46:32.459Z,98896.19
2022-11-22T21:48:59.064Z,98892.69
2022-11-22T21:51:26.462Z,98894.97
2022-11-22T21:54:01.318Z,98884.22
2022-11-22T21:56:28.306Z,98894.22
2022-11-22T21:58:54.947Z,98879.34
2022-11-22T22:01:22.238Z,98911.28
2022-11-22T22:03:49.093Z,98912.13
2022-11-22T22:06:15.676Z,98905.94
2022-11-22T22:08:42.259Z,98907.56
2022-11-22T22:11:08.843Z,98902.94
2022-11-22T22:13:35.493Z,98915.00
2022-11-22T22:16:06.579Z,98913.75
2022-11-22T22:18:37.571Z,98916.31
2022-11-22T22:21:08.618Z,98901.69
2022-11-22T22:23:36.927Z,98923.00
2022-11-22T22:26:09.865Z,98917.81
2022-11-22T22:28:38.008Z,98919.44
2022-11-22T22:31:10.297Z,98893.72
2022-11-22T22:33:39.198Z,98885.91
2022-11-22T22:36:07.128Z,98920.97
2022-11-22T22:38:34.519Z,98931.31
2022-11-22T22:41:04.031Z,98910.50
2022-11-22T22:43:39.124Z,98899.84
2022-11-22T22:46:09.845Z,98916.97
2022-11-22T22:48:36.381Z,98924.34
2022-11-22T22:51:06.644Z,98925.47
2022-11-22T22:53:33.298Z,98938.09
2022-11-22T22:55:59.893Z,98938.00
2022-11-22T22:58:26.788Z,98934.53
2022-11-22T23:00:53.353Z,98943.88
2022-11-22T23:03:20.088Z,98934.28
2022-11-22T23:05:46.718Z,98934.03
2022-11-22T23:08:13.310Z,98938.69
2022-11-22T23:10:41.133Z,98939.34
2022-11-22T23:13:07.636Z,98937.41
2022-11-22T23:15:57.023Z,98941.81
2022-11-22T23:18:20.774Z,98942.59
2022-11-22T23:20:47.340Z,98937.97
2022-11-22T23:23:13.865Z,98918.47
2022-11-22T23:25:40.394Z,98937.63
2022-11-22T23:28:06.989Z,98946.56
2022-11-22T23:30:33.514Z,98943.91
2022-11-22T23:33:00.136Z,98923.41
2022-11-22T23:35:26.714Z,98940.88
2022-11-22T23:37:53.230Z,98944.28
2022-11-22T23:40:19.779Z,98952.19
2022-11-22T23:42:46.371Z,98956.50
2022-11-22T23:45:12.987Z,98950.22
2022-11-22T23:47:39.563Z,98957.25
2022-11-22T23:50:06.604Z,98952.94
2022-11-22T23:52:33.151Z,98954.63
2022-11-22T23:54:59.701Z,98952.75
2022-11-22T23:57:26.195Z,98959.72
2022-11-22T23:59:52.731Z,98957.25
